sensor_id;sensor_type;location;lat;lon;timestamp;P1;durP1;ratioP1;P2;durP2;ratioP2
50064;SDS011;64524;47.848;-122.338;2022-11-20T00:02:11;0.80;;;0.30;;
50064;SDS011;64524;47.848;-122.338;2022-11-20T00:04:44;1.50;;;0.30;;
50064;SDS011;64524;47.848;-122.338;2022-11-20T00:07:13;0.90;;;0.30;;
50064;SDS011;64524;47.848;-122.338;2022-11-20T00:09:42;1.10;;;0.30;;
50064;SDS011;64524;47.848;-122.338;2022-11-20T00:12:12;0.80;;;0.30;;
50064;SDS011;64524;47.848;-122.338;2022-11-20T00:14:44;1.60;;;0.30;;
50064;SDS011;64524;47.848;-122.338;2022-11-20T00:17:15;1.70;;;0.30;;
50064;SDS011;64524;47.848;-122.338;2022-11-20T00:19:44;0.80;;;0.30;;
50064;SDS011;64524;47.848;-122.338;2022-11-20T00:22:13;1.20;;;0.30;;
50064;SDS011;64524;47.848;-122.338;2022-11-20T00:24:43;1.30;;;0.30;;
50064;SDS011;64524;47.848;-122.338;2022-11-20T00:27:13;2.70;;;0.40;;
50064;SDS011;64524;47.848;-122.338;2022-11-20T00:29:42;4.90;;;0.40;;
50064;SDS011;64524;47.848;-122.338;2022-11-20T00:32:12;0.90;;;0.30;;
50064;SDS011;64524;47.848;-122.338;2022-11-20T00:34:41;1.90;;;0.40;;
50064;SDS011;64524;47.848;-122.338;2022-11-20T00:37:11;1.10;;;0.40;;
50064;SDS011;64524;47.848;-122.338;2022-11-20T00:39:40;0.90;;;0.30;;
50064;SDS011;64524;47.848;-122.338;2022-11-20T00:42:10;1.20;;;0.30;;
50064;SDS011;64524;47.848;-122.338;2022-11-20T00:44:39;2.40;;;0.30;;
50064;SDS011;64524;47.848;-122.338;2022-11-20T00:47:09;1.50;;;0.30;;
50064;SDS011;64524;47.848;-122.338;2022-11-20T00:49:39;2.00;;;0.30;;
50064;SDS011;64524;47.848;-122.338;2022-11-20T00:52:08;1.60;;;0.30;;
50064;SDS011;64524;47.848;-122.338;2022-11-20T00:54:37;0.80;;;0.30;;
50064;SDS011;64524;47.848;-122.338;2022-11-20T00:57:07;1.30;;;0.30;;
50064;SDS011;64524;47.848;-122.338;2022-11-20T00:59:36;0.70;;;0.20;;
50064;SDS011;64524;47.848;-122.338;2022-11-20T01:02:06;0.90;;;0.30;;
50064;SDS011;64524;47.848;-122.338;2022-11-20T01:04:36;0.70;;;0.30;;
50064;SDS011;64524;47.848;-122.338;2022-11-20T01:07:06;1.00;;;0.30;;
50064;SDS011;64524;47.848;-122.338;2022-11-20T01:09:36;0.70;;;0.30;;
50064;SDS011;64524;47.848;-122.338;2022-11-20T01:12:05;0.90;;;0.30;;
50064;SDS011;64524;47.848;-122.338;2022-11-20T01:14:35;1.10;;;0.40;;
50064;SDS011;64524;47.848;-122.338;2022-11-20T01:17:07;1.20;;;0.30;;
50064;SDS011;64524;47.848;-122.338;2022-11-20T01:19:37;2.30;;;0.40;;
50064;SDS011;64524;47.848;-122.338;2022-11-20T01:22:06;1.60;;;0.50;;
50064;SDS011;64524;47.848;-122.338;2022-11-20T01:24:35;1.50;;;0.40;;
50064;SDS011;64524;47.848;-122.338;2022-11-20T01:27:05;1.20;;;0.50;;
50064;SDS011;64524;47.848;-122.338;2022-11-20T01:29:35;1.60;;;0.60;;
50064;SDS011;64524;47.848;-122.338;2022-11-20T01:32:04;1.50;;;0.50;;
50064;SDS011;64524;47.848;-122.338;2022-11-20T01:34:33;2.40;;;0.40;;
50064;SDS011;64524;47.848;-122.338;2022-11-20T01:37:02;3.80;;;0.40;;
50064;SDS011;64524;47.848;-122.338;2022-11-20T01:39:32;2.40;;;0.60;;
50064;SDS011;64524;47.848;-122.338;2022-11-20T01:42:02;1.60;;;0.60;;
50064;SDS011;64524;47.848;-122.338;2022-11-20T01:47:22;1.60;;;0.60;;
50064;SDS011;64524;47.848;-122.338;2022-11-20T01:53:10;4.40;;;0.90;;
50064;SDS011;64524;47.848;-122.338;2022-11-20T01:55:47;1.50;;;0.60;;
50064;SDS011;64524;47.848;-122.338;2022-11-20T01:58:19;11.10;;;0.60;;
50064;SDS011;64524;47.848;-122.338;2022-11-20T02:00:52;3.10;;;0.60;;
50064;SDS011;64524;47.848;-122.338;2022-11-20T02:03:22;2.20;;;0.90;;
50064;SDS011;64524;47.848;-122.338;2022-11-20T02:08:39;1.70;;;0.50;;
50064;SDS011;64524;47.848;-122.338;2022-11-20T02:11:08;5.50;;;0.60;;
50064;SDS011;64524;47.848;-122.338;2022-11-20T02:13:38;2.10;;;0.60;;
50064;SDS011;64524;47.848;-122.338;2022-11-20T02:18:44;5.20;;;0.80;;
50064;SDS011;64524;47.848;-122.338;2022-11-20T02:21:34;3.50;;;0.70;;
50064;SDS011;64524;47.848;-122.338;2022-11-20T02:24:09;5.10;;;0.60;;
50064;SDS011;64524;47.848;-122.338;2022-11-20T02:26:46;3.20;;;0.70;;
50064;SDS011;64524;47.848;-122.338;2022-11-20T02:29:42;1.50;;;0.60;;
50064;SDS011;64524;47.848;-122.338;2022-11-20T02:32:27;2.40;;;0.90;;
50064;SDS011;64524;47.848;-122.338;2022-11-20T02:35:09;2.80;;;0.90;;
50064;SDS011;64524;47.848;-122.338;2022-11-20T02:37:50;6.00;;;1.10;;
50064;SDS011;64524;47.848;-122.338;2022-11-20T02:40:22;2.90;;;1.00;;
50064;SDS011;64524;47.848;-122.338;2022-11-20T02:42:52;3.40;;;1.60;;
50064;SDS011;64524;47.848;-122.338;2022-11-20T02:45:41;5.00;;;1.90;;
50064;SDS011;64524;47.848;-122.338;2022-11-20T02:48:11;4.10;;;2.60;;
50064;SDS011;64524;47.848;-122.338;2022-11-20T02:50:40;7.50;;;2.40;;
50064;SDS011;64524;47.848;-122.338;2022-11-20T02:53:10;5.90;;;2.50;;
50064;SDS011;64524;47.848;-122.338;2022-11-20T02:55:39;4.30;;;1.70;;
50064;SDS011;64524;47.848;-122.338;2022-11-20T02:58:09;4.50;;;1.70;;
50064;SDS011;64524;47.848;-122.338;2022-11-20T03:00:38;6.80;;;2.80;;
50064;SDS011;64524;47.848;-122.338;2022-11-20T03:03:08;7.00;;;2.90;;
50064;SDS011;64524;47.848;-122.338;2022-11-20T03:05:38;5.70;;;2.00;;
50064;SDS011;64524;47.848;-122.338;2022-11-20T03:08:08;5.40;;;1.40;;
50064;SDS011;64524;47.848;-122.338;2022-11-20T03:10:38;8.80;;;1.70;;
50064;SDS011;64524;47.848;-122.338;2022-11-20T03:13:09;7.10;;;2.10;;
50064;SDS011;64524;47.848;-122.338;2022-11-20T03:15:41;3.70;;;2.00;;
50064;SDS011;64524;47.848;-122.338;2022-11-20T03:18:10;4.60;;;2.30;;
50064;SDS011;64524;47.848;-122.338;2022-11-20T03:20:42;9.30;;;2.40;;
50064;SDS011;64524;47.848;-122.338;2022-11-20T03:23:12;4.30;;;1.30;;
50064;SDS011;64524;47.848;-122.338;2022-11-20T03:25:41;5.40;;;1.30;;
50064;SDS011;64524;47.848;-122.338;2022-11-20T03:28:10;6.40;;;1.60;;
50064;SDS011;64524;47.848;-122.338;2022-11-20T03:30:40;2.40;;;0.90;;
50064;SDS011;64524;47.848;-122.338;2022-11-20T03:33:10;5.50;;;1.00;;
50064;SDS011;64524;47.848;-122.338;2022-11-20T03:35:39;5.60;;;1.30;;
50064;SDS011;64524;47.848;-122.338;2022-11-20T03:38:09;5.80;;;1.10;;
50064;SDS011;64524;47.848;-122.338;2022-11-20T03:40:38;4.20;;;1.40;;
50064;SDS011;64524;47.848;-122.338;2022-11-20T03:43:14;4.00;;;1.90;;
50064;SDS011;64524;47.848;-122.338;2022-11-20T03:45:44;5.90;;;1.70;;
50064;SDS011;64524;47.848;-122.338;2022-11-20T03:48:13;4.10;;;1.00;;
50064;SDS011;64524;47.848;-122.338;2022-11-20T03:50:43;6.00;;;1.30;;
50064;SDS011;64524;47.848;-122.338;2022-11-20T03:53:15;5.30;;;1.50;;
50064;SDS011;64524;47.848;-122.338;2022-11-20T03:55:45;2.40;;;1.10;;
50064;SDS011;64524;47.848;-122.338;2022-11-20T03:58:18;4.40;;;1.20;;
50064;SDS011;64524;47.848;-122.338;2022-11-20T04:00:48;4.30;;;1.60;;
50064;SDS011;64524;47.848;-122.338;2022-11-20T04:03:18;6.40;;;1.60;;
50064;SDS011;64524;47.848;-122.338;2022-11-20T04:05:48;5.20;;;2.10;;
50064;SDS011;64524;47.848;-122.338;2022-11-20T04:08:18;10.80;;;2.30;;
50064;SDS011;64524;47.848;-122.338;2022-11-20T04:10:47;7.20;;;2.50;;
50064;SDS011;64524;47.848;-122.338;2022-11-20T04:13:17;24.10;;;6.70;;
50064;SDS011;64524;47.848;-122.338;2022-11-20T04:15:46;8.80;;;3.50;;
50064;SDS011;64524;47.848;-122.338;2022-11-20T04:18:16;5.70;;;2.20;;
50064;SDS011;64524;47.848;-122.338;2022-11-20T04:20:45;6.60;;;2.20;;
50064;SDS011;64524;47.848;-122.338;2022-11-20T04:23:15;7.00;;;2.40;;
50064;SDS011;64524;47.848;-122.338;2022-11-20T04:25:44;9.40;;;2.60;;
50064;SDS011;64524;47.848;-122.338;2022-11-20T04:28:13;5.40;;;2.10;;
50064;SDS011;64524;47.848;-122.338;2022-11-20T04:30:43;4.50;;;2.00;;
50064;SDS011;64524;47.848;-122.338;2022-11-20T04:33:13;11.70;;;3.00;;
50064;SDS011;64524;47.848;-122.338;2022-11-20T04:35:44;6.60;;;2.20;;
50064;SDS011;64524;47.848;-122.338;2022-11-20T04:38:15;6.40;;;2.30;;
50064;SDS011;64524;47.848;-122.338;2022-11-20T04:40:45;3.30;;;1.20;;
50064;SDS011;64524;47.848;-122.338;2022-11-20T04:43:15;5.20;;;2.00;;
50064;SDS011;64524;47.848;-122.338;2022-11-20T04:45:49;6.00;;;1.50;;
50064;SDS011;64524;47.848;-122.338;2022-11-20T04:48:19;4.10;;;1.90;;
50064;SDS011;64524;47.848;-122.338;2022-11-20T04:50:50;7.70;;;2.80;;
50064;SDS011;64524;47.848;-122.338;2022-11-20T04:53:20;9.60;;;2.90;;
50064;SDS011;64524;47.848;-122.338;2022-11-20T04:55:51;4.60;;;1.70;;
50064;SDS011;64524;47.848;-122.338;2022-11-20T04:58:27;5.60;;;1.70;;
50064;SDS011;64524;47.848;-122.338;2022-11-20T05:03:46;4.80;;;2.30;;
50064;SDS011;64524;47.848;-122.338;2022-11-20T05:06:17;7.60;;;2.40;;
50064;SDS011;64524;47.848;-122.338;2022-11-20T05:08:48;5.40;;;2.40;;
50064;SDS011;64524;47.848;-122.338;2022-11-20T05:11:21;8.10;;;3.20;;
50064;SDS011;64524;47.848;-122.338;2022-11-20T05:13:51;9.60;;;3.60;;
50064;SDS011;64524;47.848;-122.338;2022-11-20T05:16:22;8.40;;;3.70;;
50064;SDS011;64524;47.848;-122.338;2022-11-20T05:18:53;12.10;;;4.90;;
50064;SDS011;64524;47.848;-122.338;2022-11-20T05:21:23;11.80;;;6.20;;
50064;SDS011;64524;47.848;-122.338;2022-11-20T05:23:53;11.50;;;6.50;;
50064;SDS011;64524;47.848;-122.338;2022-11-20T05:26:26;15.90;;;8.10;;
50064;SDS011;64524;47.848;-122.338;2022-11-20T05:28:55;17.70;;;9.60;;
50064;SDS011;64524;47.848;-122.338;2022-11-20T05:31:26;16.50;;;8.50;;
50064;SDS011;64524;47.848;-122.338;2022-11-20T05:33:56;15.90;;;8.40;;
50064;SDS011;64524;47.848;-122.338;2022-11-20T05:36:26;21.90;;;10.40;;
50064;SDS011;64524;47.848;-122.338;2022-11-20T05:38:56;14.10;;;7.40;;
50064;SDS011;64524;47.848;-122.338;2022-11-20T05:41:27;14.30;;;7.70;;
50064;SDS011;64524;47.848;-122.338;2022-11-20T05:43:57;13.90;;;8.10;;
50064;SDS011;64524;47.848;-122.338;2022-11-20T05:46:27;12.10;;;6.40;;
50064;SDS011;64524;47.848;-122.338;2022-11-20T05:48:56;11.80;;;6.10;;
50064;SDS011;64524;47.848;-122.338;2022-11-20T05:51:26;12.90;;;6.40;;
50064;SDS011;64524;47.848;-122.338;2022-11-20T05:53:56;10.10;;;4.80;;
50064;SDS011;64524;47.848;-122.338;2022-11-20T05:56:26;7.60;;;4.30;;
50064;SDS011;64524;47.848;-122.338;2022-11-20T05:58:56;7.60;;;3.40;;
50064;SDS011;64524;47.848;-122.338;2022-11-20T06:01:26;7.70;;;4.10;;
50064;SDS011;64524;47.848;-122.338;2022-11-20T06:03:57;6.70;;;3.30;;
50064;SDS011;64524;47.848;-122.338;2022-11-20T06:06:26;14.60;;;4.30;;
50064;SDS011;64524;47.848;-122.338;2022-11-20T06:08:56;9.30;;;5.20;;
50064;SDS011;64524;47.848;-122.338;2022-11-20T06:11:26;7.70;;;3.90;;
50064;SDS011;64524;47.848;-122.338;2022-11-20T06:13:56;11.70;;;4.40;;
50064;SDS011;64524;47.848;-122.338;2022-11-20T06:16:26;7.30;;;4.10;;
50064;SDS011;64524;47.848;-122.338;2022-11-20T06:18:57;10.70;;;4.00;;
50064;SDS011;64524;47.848;-122.338;2022-11-20T06:21:27;11.10;;;3.70;;
50064;SDS011;64524;47.848;-122.338;2022-11-20T06:23:57;9.40;;;3.60;;
50064;SDS011;64524;47.848;-122.338;2022-11-20T06:26:26;9.10;;;3.40;;
50064;SDS011;64524;47.848;-122.338;2022-11-20T06:28:56;9.10;;;2.80;;
50064;SDS011;64524;47.848;-122.338;2022-11-20T06:31:27;7.80;;;2.70;;
50064;SDS011;64524;47.848;-122.338;2022-11-20T06:33:57;7.70;;;2.90;;
50064;SDS011;64524;47.848;-122.338;2022-11-20T06:36:27;6.60;;;3.00;;
50064;SDS011;64524;47.848;-122.338;2022-11-20T06:38:57;8.70;;;2.40;;
50064;SDS011;64524;47.848;-122.338;2022-11-20T06:41:26;8.70;;;3.10;;
50064;SDS011;64524;47.848;-122.338;2022-11-20T06:43:56;6.00;;;3.00;;
50064;SDS011;64524;47.848;-122.338;2022-11-20T06:46:25;10.60;;;3.40;;
50064;SDS011;64524;47.848;-122.338;2022-11-20T06:48:54;7.20;;;3.40;;
50064;SDS011;64524;47.848;-122.338;2022-11-20T06:51:25;8.90;;;3.10;;
50064;SDS011;64524;47.848;-122.338;2022-11-20T06:53:55;5.70;;;2.90;;
50064;SDS011;64524;47.848;-122.338;2022-11-20T06:56:25;7.70;;;2.80;;
50064;SDS011;64524;47.848;-122.338;2022-11-20T06:58:54;8.70;;;3.50;;
50064;SDS011;64524;47.848;-122.338;2022-11-20T07:01:23;4.30;;;3.10;;
50064;SDS011;64524;47.848;-122.338;2022-11-20T07:03:53;9.50;;;2.80;;
50064;SDS011;64524;47.848;-122.338;2022-11-20T07:06:23;6.80;;;3.50;;
50064;SDS011;64524;47.848;-122.338;2022-11-20T07:08:53;8.70;;;3.60;;
50064;SDS011;64524;47.848;-122.338;2022-11-20T07:11:22;13.90;;;4.80;;
50064;SDS011;64524;47.848;-122.338;2022-11-20T07:13:52;11.80;;;4.70;;
50064;SDS011;64524;47.848;-122.338;2022-11-20T07:16:22;7.30;;;3.90;;
50064;SDS011;64524;47.848;-122.338;2022-11-20T07:18:53;11.70;;;5.30;;
50064;SDS011;64524;47.848;-122.338;2022-11-20T07:21:22;14.50;;;5.90;;
50064;SDS011;64524;47.848;-122.338;2022-11-20T07:23:52;12.40;;;6.10;;
50064;SDS011;64524;47.848;-122.338;2022-11-20T07:26:23;14.80;;;5.70;;
50064;SDS011;64524;47.848;-122.338;2022-11-20T07:28:53;12.60;;;5.60;;
50064;SDS011;64524;47.848;-122.338;2022-11-20T07:31:22;13.30;;;7.60;;
50064;SDS011;64524;47.848;-122.338;2022-11-20T07:33:52;17.20;;;7.50;;
50064;SDS011;64524;47.848;-122.338;2022-11-20T07:36:22;11.20;;;6.30;;
50064;SDS011;64524;47.848;-122.338;2022-11-20T07:38:52;17.90;;;7.80;;
50064;SDS011;64524;47.848;-122.338;2022-11-20T07:41:22;17.70;;;7.90;;
50064;SDS011;64524;47.848;-122.338;2022-11-20T07:43:51;14.60;;;7.00;;
50064;SDS011;64524;47.848;-122.338;2022-11-20T07:46:21;16.70;;;7.90;;
50064;SDS011;64524;47.848;-122.338;2022-11-20T07:48:51;19.50;;;7.30;;
50064;SDS011;64524;47.848;-122.338;2022-11-20T07:51:21;16.90;;;8.20;;
50064;SDS011;64524;47.848;-122.338;2022-11-20T07:53:52;16.60;;;8.80;;
50064;SDS011;64524;47.848;-122.338;2022-11-20T07:56:21;16.90;;;8.20;;
50064;SDS011;64524;47.848;-122.338;2022-11-20T07:58:52;14.00;;;7.30;;
50064;SDS011;64524;47.848;-122.338;2022-11-20T08:01:22;10.40;;;6.30;;
50064;SDS011;64524;47.848;-122.338;2022-11-20T08:03:52;11.00;;;5.80;;
50064;SDS011;64524;47.848;-122.338;2022-11-20T08:06:22;15.50;;;6.00;;
50064;SDS011;64524;47.848;-122.338;2022-11-20T08:08:52;10.10;;;4.70;;
50064;SDS011;64524;47.848;-122.338;2022-11-20T08:11:22;8.10;;;4.40;;
50064;SDS011;64524;47.848;-122.338;2022-11-20T08:14:09;10.20;;;3.90;;
50064;SDS011;64524;47.848;-122.338;2022-11-20T08:16:45;9.80;;;4.40;;
50064;SDS011;64524;47.848;-122.338;2022-11-20T08:19:16;11.60;;;5.00;;
50064;SDS011;64524;47.848;-122.338;2022-11-20T08:21:49;16.00;;;7.40;;
50064;SDS011;64524;47.848;-122.338;2022-11-20T08:24:19;10.70;;;5.10;;
50064;SDS011;64524;47.848;-122.338;2022-11-20T08:26:48;13.30;;;7.80;;
50064;SDS011;64524;47.848;-122.338;2022-11-20T08:29:19;20.40;;;7.10;;
50064;SDS011;64524;47.848;-122.338;2022-11-20T08:31:49;10.80;;;5.30;;
50064;SDS011;64524;47.848;-122.338;2022-11-20T08:34:20;13.80;;;6.20;;
50064;SDS011;64524;47.848;-122.338;2022-11-20T08:36:49;8.50;;;3.60;;
50064;SDS011;64524;47.848;-122.338;2022-11-20T08:39:19;9.20;;;4.40;;
50064;SDS011;64524;47.848;-122.338;2022-11-20T08:41:51;10.60;;;4.30;;
50064;SDS011;64524;47.848;-122.338;2022-11-20T08:44:21;11.10;;;4.90;;
50064;SDS011;64524;47.848;-122.338;2022-11-20T08:46:50;9.70;;;3.40;;
50064;SDS011;64524;47.848;-122.338;2022-11-20T08:49:33;9.70;;;3.80;;
50064;SDS011;64524;47.848;-122.338;2022-11-20T08:52:02;5.70;;;3.40;;
50064;SDS011;64524;47.848;-122.338;2022-11-20T08:54:32;4.90;;;2.20;;
50064;SDS011;64524;47.848;-122.338;2022-11-20T08:57:04;8.00;;;3.30;;
50064;SDS011;64524;47.848;-122.338;2022-11-20T08:59:33;8.90;;;4.10;;
50064;SDS011;64524;47.848;-122.338;2022-11-20T09:02:23;9.30;;;5.80;;
50064;SDS011;64524;47.848;-122.338;2022-11-20T09:04:55;9.80;;;3.40;;
50064;SDS011;64524;47.848;-122.338;2022-11-20T09:07:24;8.00;;;3.30;;
50064;SDS011;64524;47.848;-122.338;2022-11-20T09:09:56;8.30;;;2.20;;
50064;SDS011;64524;47.848;-122.338;2022-11-20T09:12:48;7.70;;;3.00;;
50064;SDS011;64524;47.848;-122.338;2022-11-20T09:15:19;12.70;;;3.80;;
50064;SDS011;64524;47.848;-122.338;2022-11-20T09:17:56;8.30;;;2.40;;
50064;SDS011;64524;47.848;-122.338;2022-11-20T09:20:27;10.80;;;2.80;;
50064;SDS011;64524;47.848;-122.338;2022-11-20T09:22:57;5.00;;;1.50;;
50064;SDS011;64524;47.848;-122.338;2022-11-20T09:25:26;3.20;;;1.20;;
50064;SDS011;64524;47.848;-122.338;2022-11-20T09:27:56;3.60;;;1.00;;
50064;SDS011;64524;47.848;-122.338;2022-11-20T09:30:26;4.30;;;1.00;;
50064;SDS011;64524;47.848;-122.338;2022-11-20T09:32:56;5.00;;;1.30;;
50064;SDS011;64524;47.848;-122.338;2022-11-20T09:35:25;4.40;;;1.20;;
50064;SDS011;64524;47.848;-122.338;2022-11-20T09:37:55;2.50;;;0.90;;
50064;SDS011;64524;47.848;-122.338;2022-11-20T09:40:28;4.70;;;1.00;;
50064;SDS011;64524;47.848;-122.338;2022-11-20T09:43:03;2.50;;;1.00;;
50064;SDS011;64524;47.848;-122.338;2022-11-20T09:56:55;4.60;;;0.90;;
50064;SDS011;64524;47.848;-122.338;2022-11-20T09:59:36;4.00;;;1.10;;
50064;SDS011;64524;47.848;-122.338;2022-11-20T10:08:39;3.00;;;0.90;;
50064;SDS011;64524;47.848;-122.338;2022-11-20T10:21:47;4.70;;;0.80;;
50064;SDS011;64524;47.848;-122.338;2022-11-20T10:24:47;3.20;;;0.90;;
50064;SDS011;64524;47.848;-122.338;2022-11-20T10:30:24;3.20;;;0.70;;
50064;SDS011;64524;47.848;-122.338;2022-11-20T10:33:13;4.50;;;0.80;;
50064;SDS011;64524;47.848;-122.338;2022-11-20T10:38:37;5.50;;;0.90;;
50064;SDS011;64524;47.848;-122.338;2022-11-20T10:41:15;3.90;;;0.80;;
50064;SDS011;64524;47.848;-122.338;2022-11-20T10:44:16;2.30;;;1.00;;
50064;SDS011;64524;47.848;-122.338;2022-11-20T10:47:15;4.80;;;0.70;;
50064;SDS011;64524;47.848;-122.338;2022-11-20T10:49:46;2.70;;;0.70;;
50064;SDS011;64524;47.848;-122.338;2022-11-20T10:58:22;2.80;;;0.80;;
50064;SDS011;64524;47.848;-122.338;2022-11-20T11:01:11;1.80;;;0.70;;
50064;SDS011;64524;47.848;-122.338;2022-11-20T11:03:43;2.20;;;0.80;;
50064;SDS011;64524;47.848;-122.338;2022-11-20T11:08:56;2.90;;;0.60;;
50064;SDS011;64524;47.848;-122.338;2022-11-20T11:11:31;4.40;;;0.70;;
50064;SDS011;64524;47.848;-122.338;2022-11-20T11:14:09;1.90;;;0.50;;
50064;SDS011;64524;47.848;-122.338;2022-11-20T11:16:55;1.40;;;0.50;;
50064;SDS011;64524;47.848;-122.338;2022-11-20T11:19:26;2.20;;;0.70;;
50064;SDS011;64524;47.848;-122.338;2022-11-20T11:21:56;1.50;;;0.50;;
50064;SDS011;64524;47.848;-122.338;2022-11-20T11:24:29;5.80;;;0.60;;
50064;SDS011;64524;47.848;-122.338;2022-11-20T11:27:12;2.10;;;0.50;;
50064;SDS011;64524;47.848;-122.338;2022-11-20T11:29:45;2.20;;;0.60;;
50064;SDS011;64524;47.848;-122.338;2022-11-20T11:32:17;2.20;;;0.60;;
50064;SDS011;64524;47.848;-122.338;2022-11-20T11:35:05;1.90;;;0.60;;
50064;SDS011;64524;47.848;-122.338;2022-11-20T11:37:35;1.80;;;0.50;;
50064;SDS011;64524;47.848;-122.338;2022-11-20T11:40:06;1.60;;;0.50;;
50064;SDS011;64524;47.848;-122.338;2022-11-20T11:43:00;2.60;;;0.60;;
50064;SDS011;64524;47.848;-122.338;2022-11-20T11:45:33;1.50;;;0.50;;
50064;SDS011;64524;47.848;-122.338;2022-11-20T11:48:03;1.40;;;0.50;;
50064;SDS011;64524;47.848;-122.338;2022-11-20T11:50:36;2.20;;;0.50;;
50064;SDS011;64524;47.848;-122.338;2022-11-20T11:53:17;1.30;;;0.40;;
50064;SDS011;64524;47.848;-122.338;2022-11-20T11:56:31;1.70;;;0.50;;
50064;SDS011;64524;47.848;-122.338;2022-11-20T12:06:42;1.50;;;0.60;;
50064;SDS011;64524;47.848;-122.338;2022-11-20T12:09:17;1.30;;;0.50;;
50064;SDS011;64524;47.848;-122.338;2022-11-20T12:11:58;1.40;;;0.50;;
50064;SDS011;64524;47.848;-122.338;2022-11-20T12:17:13;1.20;;;0.40;;
50064;SDS011;64524;47.848;-122.338;2022-11-20T12:19:43;2.10;;;0.30;;
50064;SDS011;64524;47.848;-122.338;2022-11-20T12:25:07;4.40;;;0.40;;
50064;SDS011;64524;47.848;-122.338;2022-11-20T12:47:46;0.90;;;0.30;;
50064;SDS011;64524;47.848;-122.338;2022-11-20T12:58:42;3.00;;;0.40;;
50064;SDS011;64524;47.848;-122.338;2022-11-20T13:07:29;2.40;;;0.40;;
50064;SDS011;64524;47.848;-122.338;2022-11-20T13:10:01;1.30;;;0.40;;
50064;SDS011;64524;47.848;-122.338;2022-11-20T13:12:45;0.80;;;0.30;;
50064;SDS011;64524;47.848;-122.338;2022-11-20T13:15:43;3.40;;;0.40;;
50064;SDS011;64524;47.848;-122.338;2022-11-20T13:18:20;0.80;;;0.30;;
50064;SDS011;64524;47.848;-122.338;2022-11-20T13:20:49;3.00;;;0.40;;
50064;SDS011;64524;47.848;-122.338;2022-11-20T13:23:25;1.50;;;0.40;;
50064;SDS011;64524;47.848;-122.338;2022-11-20T13:31:48;0.90;;;0.30;;
50064;SDS011;64524;47.848;-122.338;2022-11-20T13:34:27;0.70;;;0.30;;
50064;SDS011;64524;47.848;-122.338;2022-11-20T13:36:57;1.00;;;0.40;;
50064;SDS011;64524;47.848;-122.338;2022-11-20T13:39:32;2.10;;;0.30;;
50064;SDS011;64524;47.848;-122.338;2022-11-20T13:42:26;0.70;;;0.30;;
50064;SDS011;64524;47.848;-122.338;2022-11-20T13:45:00;0.90;;;0.30;;
50064;SDS011;64524;47.848;-122.338;2022-11-20T13:47:37;1.10;;;0.40;;
50064;SDS011;64524;47.848;-122.338;2022-11-20T13:50:15;2.80;;;0.30;;
50064;SDS011;64524;47.848;-122.338;2022-11-20T13:52:54;1.20;;;0.40;;
50064;SDS011;64524;47.848;-122.338;2022-11-20T14:01:32;2.00;;;0.40;;
50064;SDS011;64524;47.848;-122.338;2022-11-20T14:04:06;1.70;;;0.30;;
50064;SDS011;64524;47.848;-122.338;2022-11-20T14:06:43;1.10;;;0.30;;
50064;SDS011;64524;47.848;-122.338;2022-11-20T14:09:25;2.10;;;0.40;;
50064;SDS011;64524;47.848;-122.338;2022-11-20T14:11:59;1.00;;;0.30;;
50064;SDS011;64524;47.848;-122.338;2022-11-20T14:14:30;12.60;;;0.40;;
50064;SDS011;64524;47.848;-122.338;2022-11-20T14:17:08;3.90;;;0.40;;
50064;SDS011;64524;47.848;-122.338;2022-11-20T14:19:46;0.80;;;0.30;;
50064;SDS011;64524;47.848;-122.338;2022-11-20T14:30:27;1.20;;;0.30;;
50064;SDS011;64524;47.848;-122.338;2022-11-20T14:33:04;1.30;;;0.40;;
50064;SDS011;64524;47.848;-122.338;2022-11-20T14:35:37;1.50;;;0.40;;
50064;SDS011;64524;47.848;-122.338;2022-11-20T14:38:14;1.00;;;0.30;;
50064;SDS011;64524;47.848;-122.338;2022-11-20T14:40:49;1.50;;;0.40;;
50064;SDS011;64524;47.848;-122.338;2022-11-20T14:46:11;2.00;;;0.40;;
50064;SDS011;64524;47.848;-122.338;2022-11-20T14:48:49;2.40;;;0.40;;
50064;SDS011;64524;47.848;-122.338;2022-11-20T14:54:13;2.10;;;0.40;;
50064;SDS011;64524;47.848;-122.338;2022-11-20T14:56:57;1.90;;;0.50;;
50064;SDS011;64524;47.848;-122.338;2022-11-20T14:59:29;1.20;;;0.30;;
50064;SDS011;64524;47.848;-122.338;2022-11-20T15:04:32;1.50;;;0.40;;
50064;SDS011;64524;47.848;-122.338;2022-11-20T15:07:22;2.60;;;0.40;;
50064;SDS011;64524;47.848;-122.338;2022-11-20T15:10:00;1.20;;;0.50;;
50064;SDS011;64524;47.848;-122.338;2022-11-20T15:12:55;1.60;;;0.50;;
50064;SDS011;64524;47.848;-122.338;2022-11-20T15:18:22;1.10;;;0.40;;
50064;SDS011;64524;47.848;-122.338;2022-11-20T15:20:56;2.60;;;0.40;;
50064;SDS011;64524;47.848;-122.338;2022-11-20T15:23:29;1.00;;;0.40;;
50064;SDS011;64524;47.848;-122.338;2022-11-20T15:25:59;1.50;;;0.40;;
50064;SDS011;64524;47.848;-122.338;2022-11-20T15:28:41;1.30;;;0.40;;
50064;SDS011;64524;47.848;-122.338;2022-11-20T15:31:13;1.30;;;0.60;;
50064;SDS011;64524;47.848;-122.338;2022-11-20T15:33:43;1.50;;;0.40;;
50064;SDS011;64524;47.848;-122.338;2022-11-20T15:36:13;1.90;;;0.50;;
50064;SDS011;64524;47.848;-122.338;2022-11-20T15:38:43;2.20;;;0.50;;
50064;SDS011;64524;47.848;-122.338;2022-11-20T15:41:13;4.20;;;0.60;;
50064;SDS011;64524;47.848;-122.338;2022-11-20T15:43:42;2.30;;;0.50;;
50064;SDS011;64524;47.848;-122.338;2022-11-20T15:46:13;1.50;;;0.50;;
50064;SDS011;64524;47.848;-122.338;2022-11-20T15:48:47;9.30;;;1.30;;
50064;SDS011;64524;47.848;-122.338;2022-11-20T15:51:32;3.20;;;0.80;;
50064;SDS011;64524;47.848;-122.338;2022-11-20T15:54:24;4.40;;;0.70;;
50064;SDS011;64524;47.848;-122.338;2022-11-20T15:56:53;2.80;;;0.60;;
50064;SDS011;64524;47.848;-122.338;2022-11-20T15:59:22;1.40;;;0.50;;
50064;SDS011;64524;47.848;-122.338;2022-11-20T16:01:52;2.10;;;0.60;;
50064;SDS011;64524;47.848;-122.338;2022-11-20T16:04:22;1.80;;;0.60;;
50064;SDS011;64524;47.848;-122.338;2022-11-20T16:06:52;1.90;;;0.70;;
50064;SDS011;64524;47.848;-122.338;2022-11-20T16:09:21;4.90;;;0.90;;
50064;SDS011;64524;47.848;-122.338;2022-11-20T16:11:51;7.10;;;0.80;;
50064;SDS011;64524;47.848;-122.338;2022-11-20T16:14:21;4.20;;;0.80;;
50064;SDS011;64524;47.848;-122.338;2022-11-20T16:17:10;4.90;;;1.30;;
50064;SDS011;64524;47.848;-122.338;2022-11-20T16:19:39;3.30;;;0.60;;
50064;SDS011;64524;47.848;-122.338;2022-11-20T16:22:10;4.00;;;0.70;;
50064;SDS011;64524;47.848;-122.338;2022-11-20T16:24:39;5.50;;;1.00;;
50064;SDS011;64524;47.848;-122.338;2022-11-20T16:27:08;8.40;;;0.80;;
50064;SDS011;64524;47.848;-122.338;2022-11-20T16:29:38;2.30;;;0.70;;
50064;SDS011;64524;47.848;-122.338;2022-11-20T16:32:08;5.20;;;0.70;;
50064;SDS011;64524;47.848;-122.338;2022-11-20T16:34:37;4.40;;;0.80;;
50064;SDS011;64524;47.848;-122.338;2022-11-20T16:37:07;7.20;;;1.30;;
50064;SDS011;64524;47.848;-122.338;2022-11-20T16:39:36;4.40;;;0.90;;
50064;SDS011;64524;47.848;-122.338;2022-11-20T16:42:05;3.80;;;0.80;;
50064;SDS011;64524;47.848;-122.338;2022-11-20T16:44:34;5.20;;;1.00;;
50064;SDS011;64524;47.848;-122.338;2022-11-20T16:47:04;9.20;;;2.00;;
50064;SDS011;64524;47.848;-122.338;2022-11-20T16:49:34;6.80;;;1.50;;
50064;SDS011;64524;47.848;-122.338;2022-11-20T16:52:03;7.30;;;2.00;;
50064;SDS011;64524;47.848;-122.338;2022-11-20T16:54:33;7.50;;;2.40;;